sensor_id;sensor_type;location;lat;lon;timestamp;P1;durP1;ratioP1;P2;durP2;ratioP2
2760;SDS011;15420;48.636;9.798;2022-09-09T00:09:51;2.33;;;1.60;;
2760;SDS011;15420;48.636;9.798;2022-09-09T00:15:34;6.10;;;2.10;;
2760;SDS011;15420;48.636;9.798;2022-09-09T00:21:06;2.13;;;1.63;;
2760;SDS011;15420;48.636;9.798;2022-09-09T00:23:38;2.00;;;1.53;;
2760;SDS011;15420;48.636;9.798;2022-09-09T00:26:12;2.20;;;1.33;;
2760;SDS011;15420;48.636;9.798;2022-09-09T00:28:57;4.43;;;1.57;;
2760;SDS011;15420;48.636;9.798;2022-09-09T00:31:27;1.43;;;1.30;;
2760;SDS011;15420;48.636;9.798;2022-09-09T00:33:57;1.50;;;1.20;;
2760;SDS011;15420;48.636;9.798;2022-09-09T00:36:48;2.67;;;1.50;;
2760;SDS011;15420;48.636;9.798;2022-09-09T00:39:38;2.40;;;1.33;;
2760;SDS011;15420;48.636;9.798;2022-09-09T00:42:14;4.80;;;1.70;;
2760;SDS011;15420;48.636;9.798;2022-09-09T00:47:43;2.50;;;1.93;;
2760;SDS011;15420;48.636;9.798;2022-09-09T00:50:22;1.40;;;1.30;;
2760;SDS011;15420;48.636;9.798;2022-09-09T00:58:23;3.70;;;1.27;;
2760;SDS011;15420;48.636;9.798;2022-09-09T01:00:52;2.97;;;2.00;;
2760;SDS011;15420;48.636;9.798;2022-09-09T01:12:28;1.60;;;1.47;;
2760;SDS011;15420;48.636;9.798;2022-09-09T01:17:52;5.23;;;1.87;;
2760;SDS011;15420;48.636;9.798;2022-09-09T01:28:51;2.90;;;1.10;;
2760;SDS011;15420;48.636;9.798;2022-09-09T01:31:26;3.13;;;1.10;;
2760;SDS011;15420;48.636;9.798;2022-09-09T01:34:02;3.77;;;1.40;;
2760;SDS011;15420;48.636;9.798;2022-09-09T01:36:59;2.27;;;1.30;;
2760;SDS011;15420;48.636;9.798;2022-09-09T01:39:26;4.07;;;1.70;;
2760;SDS011;15420;48.636;9.798;2022-09-09T01:41:53;4.83;;;1.40;;
2760;SDS011;15420;48.636;9.798;2022-09-09T01:44:24;2.97;;;1.10;;
2760;SDS011;15420;48.636;9.798;2022-09-09T01:46:52;2.23;;;1.93;;
2760;SDS011;15420;48.636;9.798;2022-09-09T01:49:20;1.30;;;1.20;;
2760;SDS011;15420;48.636;9.798;2022-09-09T01:51:50;2.30;;;1.60;;
2760;SDS011;15420;48.636;9.798;2022-09-09T01:54:19;2.40;;;1.40;;
2760;SDS011;15420;48.636;9.798;2022-09-09T01:57:02;2.07;;;1.30;;
2760;SDS011;15420;48.636;9.798;2022-09-09T02:07:48;1.60;;;1.50;;
2760;SDS011;15420;48.636;9.798;2022-09-09T02:10:25;2.43;;;1.30;;
2760;SDS011;15420;48.636;9.798;2022-09-09T02:13:14;3.13;;;1.47;;
2760;SDS011;15420;48.636;9.798;2022-09-09T02:21:22;7.50;;;1.27;;
2760;SDS011;15420;48.636;9.798;2022-09-09T02:23:52;3.00;;;1.73;;
2760;SDS011;15420;48.636;9.798;2022-09-09T02:26:21;2.30;;;1.40;;
2760;SDS011;15420;48.636;9.798;2022-09-09T02:28:49;4.40;;;1.70;;
2760;SDS011;15420;48.636;9.798;2022-09-09T02:31:18;2.70;;;1.40;;
2760;SDS011;15420;48.636;9.798;2022-09-09T02:33:48;1.43;;;1.27;;
2760;SDS011;15420;48.636;9.798;2022-09-09T02:36:27;7.07;;;1.63;;
2760;SDS011;15420;48.636;9.798;2022-09-09T02:38:58;5.70;;;1.40;;
2760;SDS011;15420;48.636;9.798;2022-09-09T02:41:26;1.70;;;1.30;;
2760;SDS011;15420;48.636;9.798;2022-09-09T02:44:01;2.13;;;1.20;;
2760;SDS011;15420;48.636;9.798;2022-09-09T02:46:51;2.20;;;1.47;;
2760;SDS011;15420;48.636;9.798;2022-09-09T02:49:28;1.97;;;1.10;;
2760;SDS011;15420;48.636;9.798;2022-09-09T02:52:07;1.50;;;1.40;;
2760;SDS011;15420;48.636;9.798;2022-09-09T02:54:41;3.33;;;1.43;;
2760;SDS011;15420;48.636;9.798;2022-09-09T02:59:41;2.47;;;1.80;;
2760;SDS011;15420;48.636;9.798;2022-09-09T03:02:11;1.83;;;1.43;;
2760;SDS011;15420;48.636;9.798;2022-09-09T03:04:38;1.67;;;1.30;;
2760;SDS011;15420;48.636;9.798;2022-09-09T03:07:06;2.63;;;1.37;;
2760;SDS011;15420;48.636;9.798;2022-09-09T03:09:32;1.70;;;1.50;;
2760;SDS011;15420;48.636;9.798;2022-09-09T03:11:58;2.07;;;1.20;;
2760;SDS011;15420;48.636;9.798;2022-09-09T03:14:29;2.00;;;1.50;;
2760;SDS011;15420;48.636;9.798;2022-09-09T03:16:56;1.50;;;1.30;;
2760;SDS011;15420;48.636;9.798;2022-09-09T03:19:25;2.10;;;1.30;;
2760;SDS011;15420;48.636;9.798;2022-09-09T03:21:52;2.73;;;1.00;;
2760;SDS011;15420;48.636;9.798;2022-09-09T03:24:19;2.50;;;1.27;;
2760;SDS011;15420;48.636;9.798;2022-09-09T03:26:46;12.73;;;1.47;;
2760;SDS011;15420;48.636;9.798;2022-09-09T03:29:15;2.30;;;1.23;;
2760;SDS011;15420;48.636;9.798;2022-09-09T03:31:42;2.87;;;1.80;;
2760;SDS011;15420;48.636;9.798;2022-09-09T03:34:11;3.27;;;1.50;;
2760;SDS011;15420;48.636;9.798;2022-09-09T03:36:39;1.27;;;1.00;;
2760;SDS011;15420;48.636;9.798;2022-09-09T03:39:08;2.20;;;1.90;;
2760;SDS011;15420;48.636;9.798;2022-09-09T03:41:34;1.97;;;1.50;;
2760;SDS011;15420;48.636;9.798;2022-09-09T03:44:02;2.00;;;1.37;;
2760;SDS011;15420;48.636;9.798;2022-09-09T03:46:28;1.27;;;1.17;;
2760;SDS011;15420;48.636;9.798;2022-09-09T03:48:56;1.33;;;1.20;;
2760;SDS011;15420;48.636;9.798;2022-09-09T03:51:25;1.13;;;1.10;;
2760;SDS011;15420;48.636;9.798;2022-09-09T03:53:51;1.90;;;1.43;;
2760;SDS011;15420;48.636;9.798;2022-09-09T03:56:20;1.23;;;1.13;;
2760;SDS011;15420;48.636;9.798;2022-09-09T03:58:46;1.83;;;1.00;;
2760;SDS011;15420;48.636;9.798;2022-09-09T04:01:15;2.83;;;1.13;;
2760;SDS011;15420;48.636;9.798;2022-09-09T04:03:42;3.50;;;1.30;;
2760;SDS011;15420;48.636;9.798;2022-09-09T04:06:10;1.70;;;1.00;;
2760;SDS011;15420;48.636;9.798;2022-09-09T04:08:39;1.10;;;1.00;;
2760;SDS011;15420;48.636;9.798;2022-09-09T04:11:09;1.13;;;1.03;;
2760;SDS011;15420;48.636;9.798;2022-09-09T04:13:35;3.50;;;1.30;;
2760;SDS011;15420;48.636;9.798;2022-09-09T04:16:03;3.63;;;1.73;;
2760;SDS011;15420;48.636;9.798;2022-09-09T04:18:30;2.17;;;1.70;;
2760;SDS011;15420;48.636;9.798;2022-09-09T04:20:57;2.50;;;1.30;;
2760;SDS011;15420;48.636;9.798;2022-09-09T04:23:24;2.60;;;1.70;;
2760;SDS011;15420;48.636;9.798;2022-09-09T04:25:53;1.47;;;1.37;;
2760;SDS011;15420;48.636;9.798;2022-09-09T04:28:20;2.30;;;1.77;;
2760;SDS011;15420;48.636;9.798;2022-09-09T04:30:48;2.03;;;1.47;;
2760;SDS011;15420;48.636;9.798;2022-09-09T04:33:17;3.07;;;2.10;;
2760;SDS011;15420;48.636;9.798;2022-09-09T04:35:47;3.40;;;1.93;;
2760;SDS011;15420;48.636;9.798;2022-09-09T04:38:20;5.33;;;2.23;;
2760;SDS011;15420;48.636;9.798;2022-09-09T04:40:48;3.87;;;1.87;;
2760;SDS011;15420;48.636;9.798;2022-09-09T04:43:16;5.90;;;1.70;;
2760;SDS011;15420;48.636;9.798;2022-09-09T04:45:46;3.67;;;1.83;;
2760;SDS011;15420;48.636;9.798;2022-09-09T04:48:13;3.37;;;1.50;;
2760;SDS011;15420;48.636;9.798;2022-09-09T04:50:42;2.80;;;1.93;;
2760;SDS011;15420;48.636;9.798;2022-09-09T04:53:18;1.50;;;1.40;;
2760;SDS011;15420;48.636;9.798;2022-09-09T04:55:47;5.17;;;1.80;;
2760;SDS011;15420;48.636;9.798;2022-09-09T04:58:14;2.43;;;1.40;;
2760;SDS011;15420;48.636;9.798;2022-09-09T05:00:43;5.47;;;1.60;;
2760;SDS011;15420;48.636;9.798;2022-09-09T05:03:13;2.30;;;1.57;;
2760;SDS011;15420;48.636;9.798;2022-09-09T05:05:42;2.00;;;1.27;;
2760;SDS011;15420;48.636;9.798;2022-09-09T05:08:10;4.10;;;1.77;;
2760;SDS011;15420;48.636;9.798;2022-09-09T05:10:37;3.20;;;1.30;;
2760;SDS011;15420;48.636;9.798;2022-09-09T05:13:04;1.53;;;1.40;;
2760;SDS011;15420;48.636;9.798;2022-09-09T05:15:31;1.73;;;1.63;;
2760;SDS011;15420;48.636;9.798;2022-09-09T05:18:00;3.63;;;1.63;;
2760;SDS011;15420;48.636;9.798;2022-09-09T05:20:27;3.17;;;1.77;;
2760;SDS011;15420;48.636;9.798;2022-09-09T05:22:54;4.17;;;1.50;;
2760;SDS011;15420;48.636;9.798;2022-09-09T05:25:25;2.70;;;1.77;;
2760;SDS011;15420;48.636;9.798;2022-09-09T05:27:51;2.30;;;1.70;;
2760;SDS011;15420;48.636;9.798;2022-09-09T05:30:21;3.13;;;2.40;;
2760;SDS011;15420;48.636;9.798;2022-09-09T05:32:48;4.77;;;1.70;;
2760;SDS011;15420;48.636;9.798;2022-09-09T05:35:14;3.40;;;2.00;;
2760;SDS011;15420;48.636;9.798;2022-09-09T05:37:44;2.10;;;1.70;;
2760;SDS011;15420;48.636;9.798;2022-09-09T05:40:11;2.83;;;1.83;;
2760;SDS011;15420;48.636;9.798;2022-09-09T05:42:37;3.73;;;1.60;;
2760;SDS011;15420;48.636;9.798;2022-09-09T05:45:04;1.73;;;1.60;;
2760;SDS011;15420;48.636;9.798;2022-09-09T05:47:32;2.73;;;1.70;;
2760;SDS011;15420;48.636;9.798;2022-09-09T05:49:59;2.47;;;1.90;;
2760;SDS011;15420;48.636;9.798;2022-09-09T05:52:27;2.50;;;1.83;;
2760;SDS011;15420;48.636;9.798;2022-09-09T05:54:59;2.10;;;1.57;;
2760;SDS011;15420;48.636;9.798;2022-09-09T05:57:29;3.67;;;1.60;;
2760;SDS011;15420;48.636;9.798;2022-09-09T05:59:59;2.00;;;1.80;;
2760;SDS011;15420;48.636;9.798;2022-09-09T06:02:25;4.10;;;1.37;;
2760;SDS011;15420;48.636;9.798;2022-09-09T06:04:54;2.70;;;1.87;;
2760;SDS011;15420;48.636;9.798;2022-09-09T06:07:25;2.23;;;1.57;;
2760;SDS011;15420;48.636;9.798;2022-09-09T06:09:53;1.83;;;1.47;;
2760;SDS011;15420;48.636;9.798;2022-09-09T06:12:19;1.63;;;1.30;;
2760;SDS011;15420;48.636;9.798;2022-09-09T06:14:45;1.70;;;1.27;;
2760;SDS011;15420;48.636;9.798;2022-09-09T06:17:11;1.77;;;1.60;;
2760;SDS011;15420;48.636;9.798;2022-09-09T06:19:48;2.40;;;1.30;;
2760;SDS011;15420;48.636;9.798;2022-09-09T06:22:16;1.50;;;1.30;;
2760;SDS011;15420;48.636;9.798;2022-09-09T06:24:44;2.23;;;1.40;;
2760;SDS011;15420;48.636;9.798;2022-09-09T06:27:10;3.60;;;1.70;;
2760;SDS011;15420;48.636;9.798;2022-09-09T06:29:41;2.40;;;1.60;;
2760;SDS011;15420;48.636;9.798;2022-09-09T06:32:08;1.90;;;1.60;;
2760;SDS011;15420;48.636;9.798;2022-09-09T06:34:34;2.00;;;1.47;;
2760;SDS011;15420;48.636;9.798;2022-09-09T06:37:01;1.97;;;1.60;;
2760;SDS011;15420;48.636;9.798;2022-09-09T06:39:27;1.73;;;1.63;;
2760;SDS011;15420;48.636;9.798;2022-09-09T06:41:56;1.90;;;1.70;;
2760;SDS011;15420;48.636;9.798;2022-09-09T06:44:24;1.90;;;1.67;;
2760;SDS011;15420;48.636;9.798;2022-09-09T06:46:51;2.33;;;1.40;;
2760;SDS011;15420;48.636;9.798;2022-09-09T06:49:18;2.87;;;1.77;;
2760;SDS011;15420;48.636;9.798;2022-09-09T06:51:44;3.33;;;1.63;;
2760;SDS011;15420;48.636;9.798;2022-09-09T06:54:11;3.43;;;1.30;;
2760;SDS011;15420;48.636;9.798;2022-09-09T06:56:41;1.60;;;1.50;;
2760;SDS011;15420;48.636;9.798;2022-09-09T06:59:08;1.67;;;1.50;;
2760;SDS011;15420;48.636;9.798;2022-09-09T07:01:40;1.43;;;1.33;;
2760;SDS011;15420;48.636;9.798;2022-09-09T07:04:16;3.40;;;1.43;;
2760;SDS011;15420;48.636;9.798;2022-09-09T07:06:44;2.70;;;1.70;;
2760;SDS011;15420;48.636;9.798;2022-09-09T07:09:17;3.20;;;1.20;;
2760;SDS011;15420;48.636;9.798;2022-09-09T07:11:44;3.60;;;1.40;;
2760;SDS011;15420;48.636;9.798;2022-09-09T07:14:11;1.50;;;1.40;;
2760;SDS011;15420;48.636;9.798;2022-09-09T07:16:39;2.13;;;1.63;;
2760;SDS011;15420;48.636;9.798;2022-09-09T07:19:09;1.70;;;1.17;;
2760;SDS011;15420;48.636;9.798;2022-09-09T07:21:39;3.13;;;1.53;;
2760;SDS011;15420;48.636;9.798;2022-09-09T07:24:05;2.70;;;1.83;;
2760;SDS011;15420;48.636;9.798;2022-09-09T07:26:36;2.50;;;1.97;;
2760;SDS011;15420;48.636;9.798;2022-09-09T07:29:03;1.53;;;1.30;;
2760;SDS011;15420;48.636;9.798;2022-09-09T07:31:32;3.80;;;1.33;;
2760;SDS011;15420;48.636;9.798;2022-09-09T07:34:03;1.50;;;1.40;;
2760;SDS011;15420;48.636;9.798;2022-09-09T07:36:30;2.63;;;1.40;;
2760;SDS011;15420;48.636;9.798;2022-09-09T07:39:02;1.30;;;1.20;;
2760;SDS011;15420;48.636;9.798;2022-09-09T07:41:38;1.93;;;1.80;;
2760;SDS011;15420;48.636;9.798;2022-09-09T07:44:14;1.47;;;1.20;;
2760;SDS011;15420;48.636;9.798;2022-09-09T07:46:43;1.40;;;1.30;;
2760;SDS011;15420;48.636;9.798;2022-09-09T07:49:11;2.50;;;1.30;;
2760;SDS011;15420;48.636;9.798;2022-09-09T07:51:43;4.50;;;1.57;;
2760;SDS011;15420;48.636;9.798;2022-09-09T07:54:13;2.17;;;1.37;;
2760;SDS011;15420;48.636;9.798;2022-09-09T07:56:41;2.10;;;1.27;;
2760;SDS011;15420;48.636;9.798;2022-09-09T07:59:07;1.57;;;1.27;;
2760;SDS011;15420;48.636;9.798;2022-09-09T08:01:35;3.40;;;1.50;;
2760;SDS011;15420;48.636;9.798;2022-09-09T08:04:08;1.43;;;1.20;;
2760;SDS011;15420;48.636;9.798;2022-09-09T08:06:40;3.53;;;1.60;;
2760;SDS011;15420;48.636;9.798;2022-09-09T08:09:09;1.30;;;1.20;;
2760;SDS011;15420;48.636;9.798;2022-09-09T08:11:36;1.40;;;1.30;;
2760;SDS011;15420;48.636;9.798;2022-09-09T08:14:03;1.47;;;1.37;;
2760;SDS011;15420;48.636;9.798;2022-09-09T08:16:32;3.60;;;1.40;;
2760;SDS011;15420;48.636;9.798;2022-09-09T08:19:01;1.17;;;1.07;;
2760;SDS011;15420;48.636;9.798;2022-09-09T08:21:32;2.83;;;1.40;;
2760;SDS011;15420;48.636;9.798;2022-09-09T08:24:01;2.13;;;1.30;;
2760;SDS011;15420;48.636;9.798;2022-09-09T08:26:33;2.17;;;1.40;;
2760;SDS011;15420;48.636;9.798;2022-09-09T08:29:03;2.03;;;1.33;;
2760;SDS011;15420;48.636;9.798;2022-09-09T08:31:35;2.00;;;1.10;;
2760;SDS011;15420;48.636;9.798;2022-09-09T08:34:03;3.53;;;1.33;;
2760;SDS011;15420;48.636;9.798;2022-09-09T08:36:32;1.63;;;1.17;;
2760;SDS011;15420;48.636;9.798;2022-09-09T08:39:06;4.40;;;1.40;;
2760;SDS011;15420;48.636;9.798;2022-09-09T08:44:31;1.80;;;1.23;;
2760;SDS011;15420;48.636;9.798;2022-09-09T08:52:19;2.00;;;1.17;;
2760;SDS011;15420;48.636;9.798;2022-09-09T08:54:47;1.53;;;1.20;;
2760;SDS011;15420;48.636;9.798;2022-09-09T08:57:18;2.20;;;1.27;;
2760;SDS011;15420;48.636;9.798;2022-09-09T08:59:51;2.30;;;1.13;;
2760;SDS011;15420;48.636;9.798;2022-09-09T09:02:34;6.63;;;1.60;;
2760;SDS011;15420;48.636;9.798;2022-09-09T09:05:33;2.50;;;1.50;;
2760;SDS011;15420;48.636;9.798;2022-09-09T09:10:47;1.00;;;1.00;;
2760;SDS011;15420;48.636;9.798;2022-09-09T09:15:43;3.30;;;1.53;;
2760;SDS011;15420;48.636;9.798;2022-09-09T09:18:15;2.70;;;2.17;;
2760;SDS011;15420;48.636;9.798;2022-09-09T09:20:48;2.73;;;1.50;;
2760;SDS011;15420;48.636;9.798;2022-09-09T09:23:47;1.60;;;1.10;;
2760;SDS011;15420;48.636;9.798;2022-09-09T09:26:30;1.50;;;1.20;;
2760;SDS011;15420;48.636;9.798;2022-09-09T09:29:10;1.10;;;1.00;;
2760;SDS011;15420;48.636;9.798;2022-09-09T09:31:42;1.87;;;1.00;;
2760;SDS011;15420;48.636;9.798;2022-09-09T09:34:14;3.40;;;2.20;;
2760;SDS011;15420;48.636;9.798;2022-09-09T09:39:22;2.60;;;1.20;;
2760;SDS011;15420;48.636;9.798;2022-09-09T09:41:53;1.10;;;0.90;;
2760;SDS011;15420;48.636;9.798;2022-09-09T09:44:30;2.20;;;1.13;;
2760;SDS011;15420;48.636;9.798;2022-09-09T09:47:10;2.40;;;1.00;;
2760;SDS011;15420;48.636;9.798;2022-09-09T09:49:50;0.90;;;0.90;;
2760;SDS011;15420;48.636;9.798;2022-09-09T09:52:27;1.17;;;0.90;;
2760;SDS011;15420;48.636;9.798;2022-09-09T09:54:59;2.73;;;1.20;;
2760;SDS011;15420;48.636;9.798;2022-09-09T09:57:37;1.60;;;0.90;;
2760;SDS011;15420;48.636;9.798;2022-09-09T10:00:21;1.50;;;0.80;;
2760;SDS011;15420;48.636;9.798;2022-09-09T10:02:50;0.97;;;0.80;;
2760;SDS011;15420;48.636;9.798;2022-09-09T10:05:25;1.57;;;0.80;;
2760;SDS011;15420;48.636;9.798;2022-09-09T10:16:09;3.27;;;1.07;;
2760;SDS011;15420;48.636;9.798;2022-09-09T10:19:04;0.80;;;0.70;;
2760;SDS011;15420;48.636;9.798;2022-09-09T10:25:03;1.80;;;1.00;;
2760;SDS011;15420;48.636;9.798;2022-09-09T10:36:01;1.20;;;0.80;;
2760;SDS011;15420;48.636;9.798;2022-09-09T10:39:14;2.60;;;0.80;;
2760;SDS011;15420;48.636;9.798;2022-09-09T10:50:49;2.57;;;0.90;;
2760;SDS011;15420;48.636;9.798;2022-09-09T10:56:16;1.37;;;0.80;;
2760;SDS011;15420;48.636;9.798;2022-09-09T10:58:55;1.33;;;0.80;;
2760;SDS011;15420;48.636;9.798;2022-09-09T11:01:38;3.20;;;1.10;;
2760;SDS011;15420;48.636;9.798;2022-09-09T11:04:22;2.30;;;0.73;;
2760;SDS011;15420;48.636;9.798;2022-09-09T11:07:10;3.10;;;0.80;;
2760;SDS011;15420;48.636;9.798;2022-09-09T11:09:49;1.70;;;0.77;;
2760;SDS011;15420;48.636;9.798;2022-09-09T11:12:25;1.47;;;0.63;;
2760;SDS011;15420;48.636;9.798;2022-09-09T11:15:06;1.40;;;0.93;;
2760;SDS011;15420;48.636;9.798;2022-09-09T11:17:55;2.40;;;1.00;;
2760;SDS011;15420;48.636;9.798;2022-09-09T11:20:34;1.10;;;0.80;;
2760;SDS011;15420;48.636;9.798;2022-09-09T11:23:10;1.37;;;0.70;;
2760;SDS011;15420;48.636;9.798;2022-09-09T11:25:53;0.90;;;0.80;;
2760;SDS011;15420;48.636;9.798;2022-09-09T11:34:06;3.13;;;0.83;;
2760;SDS011;15420;48.636;9.798;2022-09-09T11:37:12;1.23;;;0.60;;
2760;SDS011;15420;48.636;9.798;2022-09-09T11:43:09;1.90;;;0.60;;
2760;SDS011;15420;48.636;9.798;2022-09-09T11:45:55;0.70;;;0.57;;
2760;SDS011;15420;48.636;9.798;2022-09-09T11:48:37;1.47;;;0.73;;
2760;SDS011;15420;48.636;9.798;2022-09-09T11:56:27;4.10;;;0.60;;
2760;SDS011;15420;48.636;9.798;2022-09-09T12:01:42;0.70;;;0.60;;
2760;SDS011;15420;48.636;9.798;2022-09-09T12:09:50;1.33;;;0.73;;
2760;SDS011;15420;48.636;9.798;2022-09-09T12:12:41;0.97;;;0.50;;
2760;SDS011;15420;48.636;9.798;2022-09-09T12:17:41;0.90;;;0.50;;
2760;SDS011;15420;48.636;9.798;2022-09-09T12:25:58;1.40;;;0.93;;
2760;SDS011;15420;48.636;9.798;2022-09-09T12:31:10;1.87;;;0.90;;
2760;SDS011;15420;48.636;9.798;2022-09-09T12:39:44;1.53;;;0.80;;
2760;SDS011;15420;48.636;9.798;2022-09-09T12:42:27;2.40;;;1.00;;
2760;SDS011;15420;48.636;9.798;2022-09-09T12:44:55;3.20;;;0.70;;
2760;SDS011;15420;48.636;9.798;2022-09-09T12:50:24;0.80;;;0.50;;
2760;SDS011;15420;48.636;9.798;2022-09-09T12:53:11;4.03;;;0.70;;
2760;SDS011;15420;48.636;9.798;2022-09-09T12:55:52;0.67;;;0.50;;
2760;SDS011;15420;48.636;9.798;2022-09-09T12:58:25;1.43;;;0.60;;
2760;SDS011;15420;48.636;9.798;2022-09-09T13:00:57;1.90;;;0.67;;
2760;SDS011;15420;48.636;9.798;2022-09-09T13:03:24;1.37;;;0.60;;
2760;SDS011;15420;48.636;9.798;2022-09-09T13:05:52;3.43;;;0.77;;
2760;SDS011;15420;48.636;9.798;2022-09-09T13:08:25;2.87;;;0.70;;
2760;SDS011;15420;48.636;9.798;2022-09-09T13:15:58;1.33;;;0.50;;
2760;SDS011;15420;48.636;9.798;2022-09-09T13:18:27;3.37;;;0.63;;
2760;SDS011;15420;48.636;9.798;2022-09-09T13:20:55;1.20;;;0.80;;
2760;SDS011;15420;48.636;9.798;2022-09-09T13:23:32;1.93;;;0.70;;
2760;SDS011;15420;48.636;9.798;2022-09-09T13:26:04;1.57;;;0.60;;
2760;SDS011;15420;48.636;9.798;2022-09-09T13:28:48;0.77;;;0.50;;
2760;SDS011;15420;48.636;9.798;2022-09-09T13:31:24;1.20;;;0.60;;
2760;SDS011;15420;48.636;9.798;2022-09-09T13:33:54;1.60;;;0.80;;
2760;SDS011;15420;48.636;9.798;2022-09-09T13:36:34;2.13;;;0.80;;
2760;SDS011;15420;48.636;9.798;2022-09-09T13:39:04;1.87;;;0.70;;
2760;SDS011;15420;48.636;9.798;2022-09-09T13:41:42;0.60;;;0.50;;
2760;SDS011;15420;48.636;9.798;2022-09-09T13:44:23;1.07;;;0.70;;
2760;SDS011;15420;48.636;9.798;2022-09-09T13:46:59;0.60;;;0.50;;
2760;SDS011;15420;48.636;9.798;2022-09-09T13:49:29;0.70;;;0.47;;
2760;SDS011;15420;48.636;9.798;2022-09-09T13:52:10;0.50;;;0.50;;
2760;SDS011;15420;48.636;9.798;2022-09-09T13:54:38;1.40;;;0.70;;
2760;SDS011;15420;48.636;9.798;2022-09-09T13:57:18;0.97;;;0.50;;
2760;SDS011;15420;48.636;9.798;2022-09-09T13:59:46;1.60;;;0.60;;
2760;SDS011;15420;48.636;9.798;2022-09-09T14:02:14;0.97;;;0.50;;
2760;SDS011;15420;48.636;9.798;2022-09-09T14:04:41;1.23;;;0.60;;
2760;SDS011;15420;48.636;9.798;2022-09-09T14:07:14;1.63;;;0.73;;
2760;SDS011;15420;48.636;9.798;2022-09-09T14:09:43;1.80;;;0.50;;
2760;SDS011;15420;48.636;9.798;2022-09-09T14:12:13;2.97;;;0.77;;
2760;SDS011;15420;48.636;9.798;2022-09-09T14:14:40;1.43;;;0.60;;
2760;SDS011;15420;48.636;9.798;2022-09-09T14:17:10;1.53;;;1.03;;
2760;SDS011;15420;48.636;9.798;2022-09-09T14:19:39;1.03;;;0.50;;
2760;SDS011;15420;48.636;9.798;2022-09-09T14:22:07;1.33;;;0.60;;
2760;SDS011;15420;48.636;9.798;2022-09-09T14:24:37;0.87;;;0.50;;
2760;SDS011;15420;48.636;9.798;2022-09-09T14:27:05;1.63;;;0.70;;
2760;SDS011;15420;48.636;9.798;2022-09-09T14:29:34;2.00;;;0.73;;
2760;SDS011;15420;48.636;9.798;2022-09-09T14:32:02;1.10;;;0.70;;
2760;SDS011;15420;48.636;9.798;2022-09-09T14:34:28;1.37;;;0.77;;
2760;SDS011;15420;48.636;9.798;2022-09-09T14:36:59;2.90;;;0.90;;
2760;SDS011;15420;48.636;9.798;2022-09-09T14:39:25;1.60;;;0.50;;
2760;SDS011;15420;48.636;9.798;2022-09-09T14:41:51;2.00;;;0.70;;
2760;SDS011;15420;48.636;9.798;2022-09-09T14:44:17;1.30;;;0.50;;
2760;SDS011;15420;48.636;9.798;2022-09-09T14:46:44;2.93;;;0.70;;
2760;SDS011;15420;48.636;9.798;2022-09-09T14:49:15;1.23;;;0.70;;
2760;SDS011;15420;48.636;9.798;2022-09-09T14:51:41;1.80;;;0.70;;
2760;SDS011;15420;48.636;9.798;2022-09-09T14:54:07;0.97;;;0.70;;
2760;SDS011;15420;48.636;9.798;2022-09-09T14:56:33;1.17;;;0.50;;
2760;SDS011;15420;48.636;9.798;2022-09-09T14:59:06;1.50;;;0.73;;
2760;SDS011;15420;48.636;9.798;2022-09-09T15:01:34;2.87;;;0.67;;
2760;SDS011;15420;48.636;9.798;2022-09-09T15:04:03;1.93;;;0.60;;
2760;SDS011;15420;48.636;9.798;2022-09-09T15:06:38;1.47;;;0.70;;
2760;SDS011;15420;48.636;9.798;2022-09-09T15:09:09;0.90;;;0.60;;
2760;SDS011;15420;48.636;9.798;2022-09-09T15:11:40;1.43;;;0.70;;
2760;SDS011;15420;48.636;9.798;2022-09-09T15:14:07;1.63;;;0.70;;
2760;SDS011;15420;48.636;9.798;2022-09-09T15:16:34;0.80;;;0.60;;
2760;SDS011;15420;48.636;9.798;2022-09-09T15:19:06;0.50;;;0.50;;
2760;SDS011;15420;48.636;9.798;2022-09-09T15:21:34;1.00;;;0.60;;
2760;SDS011;15420;48.636;9.798;2022-09-09T15:24:02;1.80;;;0.70;;
2760;SDS011;15420;48.636;9.798;2022-09-09T15:26:32;1.27;;;0.60;;
2760;SDS011;15420;48.636;9.798;2022-09-09T15:29:00;0.90;;;0.60;;
2760;SDS011;15420;48.636;9.798;2022-09-09T15:31:32;1.20;;;0.70;;
2760;SDS011;15420;48.636;9.798;2022-09-09T15:34:03;1.80;;;0.70;;
2760;SDS011;15420;48.636;9.798;2022-09-09T15:36:41;3.60;;;1.83;;
2760;SDS011;15420;48.636;9.798;2022-09-09T15:39:17;2.33;;;1.33;;
2760;SDS011;15420;48.636;9.798;2022-09-09T15:41:44;3.03;;;1.73;;
2760;SDS011;15420;48.636;9.798;2022-09-09T15:44:11;1.20;;;0.80;;
2760;SDS011;15420;48.636;9.798;2022-09-09T15:46:56;1.27;;;0.70;;
2760;SDS011;15420;48.636;9.798;2022-09-09T15:49:23;3.00;;;0.80;;
2760;SDS011;15420;48.636;9.798;2022-09-09T15:51:57;0.80;;;0.60;;
2760;SDS011;15420;48.636;9.798;2022-09-09T15:54:31;0.80;;;0.67;;
2760;SDS011;15420;48.636;9.798;2022-09-09T15:57:07;1.47;;;0.90;;
2760;SDS011;15420;48.636;9.798;2022-09-09T15:59:43;1.27;;;0.83;;
2760;SDS011;15420;48.636;9.798;2022-09-09T16:02:10;1.07;;;0.70;;
2760;SDS011;15420;48.636;9.798;2022-09-09T16:04:37;3.33;;;0.80;;
2760;SDS011;15420;48.636;9.798;2022-09-09T16:07:05;2.67;;;0.80;;
2760;SDS011;15420;48.636;9.798;2022-09-09T16:09:31;1.73;;;0.63;;
2760;SDS011;15420;48.636;9.798;2022-09-09T16:12:05;1.67;;;0.90;;
2760;SDS011;15420;48.636;9.798;2022-09-09T16:14:32;2.50;;;0.90;;
2760;SDS011;15420;48.636;9.798;2022-09-09T16:17:00;2.03;;;0.93;;
2760;SDS011;15420;48.636;9.798;2022-09-09T16:19:31;1.20;;;0.70;;
2760;SDS011;15420;48.636;9.798;2022-09-09T16:22:03;2.50;;;0.70;;
2760;SDS011;15420;48.636;9.798;2022-09-09T16:24:33;2.67;;;0.70;;
2760;SDS011;15420;48.636;9.798;2022-09-09T16:26:59;0.80;;;0.70;;
2760;SDS011;15420;48.636;9.798;2022-09-09T16:29:28;1.93;;;0.70;;
2760;SDS011;15420;48.636;9.798;2022-09-09T16:31:56;2.10;;;0.90;;
2760;SDS011;15420;48.636;9.798;2022-09-09T16:34:24;1.30;;;0.60;;
2760;SDS011;15420;48.636;9.798;2022-09-09T16:36:51;1.50;;;0.60;;
2760;SDS011;15420;48.636;9.798;2022-09-09T16:39:25;1.67;;;0.70;;
2760;SDS011;15420;48.636;9.798;2022-09-09T16:41:52;1.37;;;0.63;;
2760;SDS011;15420;48.636;9.798;2022-09-09T16:44:18;3.10;;;0.70;;
2760;SDS011;15420;48.636;9.798;2022-09-09T16:46:47;1.17;;;0.70;;
2760;SDS011;15420;48.636;9.798;2022-09-09T16:49:20;1.07;;;0.70;;
2760;SDS011;15420;48.636;9.798;2022-09-09T16:51:47;2.30;;;0.80;;
2760;SDS011;15420;48.636;9.798;2022-09-09T16:54:20;3.17;;;1.10;;
2760;SDS011;15420;48.636;9.798;2022-09-09T16:56:48;1.27;;;1.13;;
2760;SDS011;15420;48.636;9.798;2022-09-09T16:59:20;0.70;;;0.60;;
2760;SDS011;15420;48.636;9.798;2022-09-09T17:01:51;0.70;;;0.70;;
2760;SDS011;15420;48.636;9.798;2022-09-09T17:04:21;2.90;;;0.97;;
2760;SDS011;15420;48.636;9.798;2022-09-09T17:06:54;1.23;;;0.93;;
2760;SDS011;15420;48.636;9.798;2022-09-09T17:09:22;2.83;;;0.90;;
2760;SDS011;15420;48.636;9.798;2022-09-09T17:11:57;1.13;;;0.80;;
2760;SDS011;15420;48.636;9.798;2022-09-09T17:14:23;1.30;;;0.90;;
2760;SDS011;15420;48.636;9.798;2022-09-09T17:16:52;1.37;;;0.80;;
2760;SDS011;15420;48.636;9.798;2022-09-09T17:19:18;1.27;;;1.03;;
2760;SDS011;15420;48.636;9.798;2022-09-09T17:21:48;0.70;;;0.60;;
2760;SDS011;15420;48.636;9.798;2022-09-09T17:24:15;2.43;;;0.67;;
2760;SDS011;15420;48.636;9.798;2022-09-09T17:26:46;0.77;;;0.60;;
2760;SDS011;15420;48.636;9.798;2022-09-09T17:29:12;3.20;;;1.20;;
2760;SDS011;15420;48.636;9.798;2022-09-09T17:31:39;1.53;;;0.90;;
2760;SDS011;15420;48.636;9.798;2022-09-09T17:34:07;1.80;;;0.83;;
2760;SDS011;15420;48.636;9.798;2022-09-09T17:36:40;1.30;;;0.77;;
2760;SDS011;15420;48.636;9.798;2022-09-09T17:39:06;1.63;;;1.20;;
2760;SDS011;15420;48.636;9.798;2022-09-09T17:41:38;4.10;;;2.13;;
2760;SDS011;15420;48.636;9.798;2022-09-09T17:44:05;3.60;;;3.00;;
2760;SDS011;15420;48.636;9.798;2022-09-09T17:46:35;3.30;;;1.73;;
2760;SDS011;15420;48.636;9.798;2022-09-09T17:49:06;1.90;;;0.90;;
2760;SDS011;15420;48.636;9.798;2022-09-09T17:51:42;1.30;;;0.80;;
2760;SDS011;15420;48.636;9.798;2022-09-09T17:54:13;1.70;;;0.80;;
2760;SDS011;15420;48.636;9.798;2022-09-09T17:56:44;1.90;;;1.00;;
2760;SDS011;15420;48.636;9.798;2022-09-09T17:59:16;2.07;;;1.07;;
2760;SDS011;15420;48.636;9.798;2022-09-09T18:01:49;0.70;;;0.70;;